createdAt,value
2022-12-03T00:01:20.383Z,102594.16
2022-12-03T00:03:48.277Z,102590.72
2022-12-03T00:06:16.289Z,102583.28
2022-12-03T00:08:44.115Z,102583.72
2022-12-03T00:11:11.945Z,102576.84
2022-12-03T00:13:39.881Z,102585.03
2022-12-03T00:16:09.251Z,102573.22
2022-12-03T00:18:37.129Z,102573.34
2022-12-03T00:21:05.121Z,102581.66
2022-12-03T00:23:35.970Z,102570.38
2022-12-03T00:26:08.137Z,102574.59
2022-12-03T00:28:35.929Z,102576.28
2022-12-03T00:31:03.850Z,102579.84
2022-12-03T00:33:33.090Z,102564.09
2022-12-03T00:36:01.146Z,102571.16
2022-12-03T00:38:28.965Z,102565.66
2022-12-03T00:40:56.880Z,102563.13
2022-12-03T00:43:24.714Z,102556.06
2022-12-03T00:45:53.052Z,102558.16
2022-12-03T00:48:20.939Z,102563.13
2022-12-03T00:50:50.128Z,102564.63
2022-12-03T00:53:18.588Z,102560.16
2022-12-03T00:55:46.426Z,102559.66
2022-12-03T00:58:14.235Z,102564.19
2022-12-03T01:00:42.092Z,102561.03
2022-12-03T01:03:09.898Z,102572.91
2022-12-03T01:05:37.816Z,102574.91
2022-12-03T01:08:07.214Z,102573.47
2022-12-03T01:10:35.167Z,102567.78
2022-12-03T01:13:03.024Z,102573.53
2022-12-03T01:15:30.917Z,102575.78
2022-12-03T01:17:58.771Z,102579.97
2022-12-03T01:20:26.603Z,102573.53
2022-12-03T01:22:54.802Z,102580.91
2022-12-03T01:25:24.048Z,102575.75
2022-12-03T01:27:51.896Z,102578.78
2022-12-03T01:30:19.891Z,102584.50
2022-12-03T01:32:46.702Z,102588.16
2022-12-03T01:35:14.533Z,102581.59
2022-12-03T01:37:42.319Z,102588.91
2022-12-03T01:40:13.707Z,102579.53
2022-12-03T01:42:43.417Z,102585.47
2022-12-03T01:45:13.063Z,102580.69
2022-12-03T01:47:41.302Z,102587.78
2022-12-03T01:50:15.305Z,102578.53
2022-12-03T01:52:43.375Z,102583.00
2022-12-03T01:55:15.521Z,102581.66
2022-12-03T01:57:47.163Z,102575.59
2022-12-03T02:00:16.447Z,102572.16
2022-12-03T02:02:45.347Z,102570.28
2022-12-03T02:05:18.853Z,102574.59
2022-12-03T02:07:47.117Z,102571.81
2022-12-03T02:10:16.804Z,102575.03
2022-12-03T02:12:50.318Z,102572.31
2022-12-03T02:15:18.304Z,102574.88
2022-12-03T02:17:46.218Z,102573.53
2022-12-03T02:20:15.565Z,102568.59
2022-12-03T02:22:48.550Z,102576.28
2022-12-03T02:25:18.417Z,102577.69
2022-12-03T02:27:46.875Z,102575.25
2022-12-03T02:30:17.514Z,102576.09
2022-12-03T02:32:45.566Z,102573.81
2022-12-03T02:35:17.558Z,102570.09
2022-12-03T02:37:46.563Z,102572.06
2022-12-03T02:40:18.969Z,102574.84
2022-12-03T02:42:47.161Z,102571.50
2022-12-03T02:45:17.462Z,102578.03
2022-12-03T02:47:46.735Z,102577.97
2022-12-03T02:50:17.462Z,102581.41
2022-12-03T02:52:46.388Z,102581.66
2022-12-03T02:55:15.649Z,102575.22
2022-12-03T02:57:46.334Z,102567.28
2022-12-03T03:00:15.978Z,102572.66
2022-12-03T03:02:44.564Z,102569.03
2022-12-03T03:05:13.325Z,102560.31
2022-12-03T03:07:41.907Z,102561.91
2022-12-03T03:10:13.086Z,102557.66
2022-12-03T03:12:41.197Z,102557.41
2022-12-03T03:15:11.581Z,102560.72
2022-12-03T03:17:39.769Z,102551.56
2022-12-03T03:20:10.081Z,102555.69
2022-12-03T03:22:39.944Z,102561.34
2022-12-03T03:25:09.860Z,102557.91
2022-12-03T03:27:38.246Z,102553.47
2022-12-03T03:30:08.070Z,102559.53
2022-12-03T03:32:39.657Z,102560.84
2022-12-03T03:35:08.228Z,102552.91
2022-12-03T03:37:36.154Z,102550.03
2022-12-03T03:40:04.670Z,102553.88
2022-12-03T03:42:32.678Z,102551.13
2022-12-03T03:45:00.669Z,102546.53
2022-12-03T03:47:28.802Z,102536.16
2022-12-03T03:49:58.044Z,102539.41
2022-12-03T03:52:25.967Z,102530.44
2022-12-03T03:54:54.115Z,102526.28
2022-12-03T03:57:22.134Z,102519.22
2022-12-03T03:59:49.933Z,102516.72
2022-12-03T04:02:20.589Z,102521.28
2022-12-03T04:04:49.233Z,102507.84
2022-12-03T04:07:18.861Z,102505.19
2022-12-03T04:09:46.736Z,102499.53
2022-12-03T04:12:32.141Z,102494.41
2022-12-03T04:15:00.425Z,102502.47
2022-12-03T04:17:28.277Z,102496.28
2022-12-03T04:19:56.193Z,102491.59
2022-12-03T04:22:39.893Z,102491.69
2022-12-03T04:25:26.910Z,102491.06
2022-12-03T04:28:21.188Z,102486.91
2022-12-03T04:30:49.139Z,102499.09
2022-12-03T04:33:34.429Z,102485.31
2022-12-03T04:36:02.355Z,102484.97
2022-12-03T04:38:31.672Z,102484.38
2022-12-03T04:41:03.830Z,102489.38
2022-12-03T04:43:33.455Z,102483.44
2022-12-03T04:46:02.258Z,102481.09
2022-12-03T04:48:30.915Z,102481.59
2022-12-03T04:50:58.849Z,102480.44
2022-12-03T04:53:26.799Z,102480.25
2022-12-03T04:55:56.063Z,102479.22
2022-12-03T04:58:23.945Z,102493.34
2022-12-03T05:00:52.484Z,102481.44
2022-12-03T05:03:20.389Z,102478.13
2022-12-03T05:05:48.213Z,102487.81
2022-12-03T05:08:16.145Z,102477.81
2022-12-03T05:10:44.061Z,102479.50
2022-12-03T05:13:13.272Z,102471.91
2022-12-03T05:15:41.085Z,102473.31
2022-12-03T05:18:08.952Z,102472.06
2022-12-03T05:20:45.692Z,102476.06
2022-12-03T05:23:17.602Z,102472.69
2022-12-03T05:25:45.411Z,102477.53
2022-12-03T05:28:14.643Z,102468.00
2022-12-03T05:30:42.526Z,102458.44
2022-12-03T05:33:10.407Z,102458.75
2022-12-03T05:35:38.217Z,102466.06
2022-12-03T05:38:06.057Z,102459.56
2022-12-03T05:40:33.973Z,102448.44
2022-12-03T05:43:01.688Z,102465.88
2022-12-03T05:45:32.954Z,102457.44
2022-12-03T05:48:02.000Z,102451.44
2022-12-03T05:50:31.804Z,102464.22
2022-12-03T05:53:00.201Z,102463.44
2022-12-03T05:55:28.287Z,102456.13
2022-12-03T05:57:56.361Z,102454.41
2022-12-03T06:00:25.730Z,102448.44
2022-12-03T06:02:55.288Z,102459.13
2022-12-03T06:05:23.980Z,102438.41
2022-12-03T06:07:53.488Z,102444.34
2022-12-03T06:10:23.166Z,102455.13
2022-12-03T06:12:51.166Z,102452.25
2022-12-03T06:15:19.370Z,102445.00
2022-12-03T06:17:47.328Z,102447.06
2022-12-03T06:20:18.306Z,102440.88
2022-12-03T06:22:46.384Z,102440.13
2022-12-03T06:25:15.022Z,102426.25
2022-12-03T06:27:43.376Z,102428.81
2022-12-03T06:30:13.724Z,102428.47
2022-12-03T06:32:41.867Z,102434.72
2022-12-03T06:35:10.349Z,102431.72
2022-12-03T06:37:39.722Z,102434.56
2022-12-03T06:40:09.048Z,102442.47
2022-12-03T06:42:37.033Z,102433.41
2022-12-03T06:45:05.508Z,102435.84
2022-12-03T06:47:33.391Z,102436.31
2022-12-03T06:50:01.242Z,102437.28
2022-12-03T06:52:29.130Z,102433.16
2022-12-03T06:54:58.456Z,102441.63
2022-12-03T06:57:26.325Z,102428.56
2022-12-03T06:59:54.467Z,102429.41
2022-12-03T07:02:22.976Z,102434.16
2022-12-03T07:04:51.104Z,102422.81
2022-12-03T07:07:19.094Z,102418.97
2022-12-03T07:09:46.987Z,102424.28
2022-12-03T07:12:16.273Z,102416.34
2022-12-03T07:14:44.124Z,102413.91
2022-12-03T07:17:12.116Z,102418.47
2022-12-03T07:19:40.602Z,102418.34
2022-12-03T07:22:08.490Z,102412.47
2022-12-03T07:24:36.487Z,102415.66
2022-12-03T07:27:04.494Z,102416.97
2022-12-03T07:29:33.762Z,102414.75
2022-12-03T07:32:01.591Z,102417.78
2022-12-03T07:34:29.450Z,102417.72
2022-12-03T07:36:57.436Z,102415.41
2022-12-03T07:39:25.396Z,102412.16
2022-12-03T07:41:53.265Z,102409.97
2022-12-03T07:44:21.102Z,102419.50
2022-12-03T07:46:50.492Z,102431.25
2022-12-03T07:49:18.350Z,102427.00
2022-12-03T07:51:53.679Z,102426.06
2022-12-03T07:54:21.775Z,102428.19
2022-12-03T07:56:49.571Z,102428.59
2022-12-03T07:59:17.992Z,102424.56
2022-12-03T08:01:45.939Z,102418.75
2022-12-03T08:04:18.234Z,102412.63
2022-12-03T08:06:46.541Z,102406.75
2022-12-03T08:09:16.220Z,102408.47
2022-12-03T08:11:45.805Z,102416.69
2022-12-03T08:14:14.967Z,102414.41
2022-12-03T08:16:44.363Z,102415.59
2022-12-03T08:19:13.325Z,102412.72
2022-12-03T08:21:42.961Z,102410.78
2022-12-03T08:24:15.591Z,102413.53
2022-12-03T08:26:44.936Z,102424.22
2022-12-03T08:29:14.458Z,102422.25
2022-12-03T08:31:42.657Z,102419.03
2022-12-03T08:34:18.989Z,102427.22
2022-12-03T08:36:49.779Z,102420.06
2022-12-03T08:39:33.254Z,102428.31
2022-12-03T08:42:27.211Z,102422.66
2022-12-03T08:44:56.189Z,102432.06
2022-12-03T08:47:25.140Z,102428.91
2022-12-03T08:49:55.954Z,102434.31
2022-12-03T08:52:32.159Z,102429.44
2022-12-03T08:55:00.793Z,102433.19
2022-12-03T08:57:30.583Z,102425.56
2022-12-03T09:00:01.608Z,102424.38
2022-12-03T09:02:33.225Z,102423.66
2022-12-03T09:05:12.084Z,102424.94
2022-12-03T09:07:41.359Z,102431.44
2022-12-03T09:10:10.172Z,102429.28
2022-12-03T09:12:38.162Z,102429.69
2022-12-03T09:15:06.753Z,102423.84
2022-12-03T09:17:34.952Z,102428.09
2022-12-03T09:20:03.132Z,102427.91
2022-12-03T09:22:31.008Z,102426.88
2022-12-03T09:25:00.328Z,102422.50
2022-12-03T09:27:28.222Z,102426.50
2022-12-03T09:29:56.067Z,102424.66
2022-12-03T09:32:24.062Z,102435.13
2022-12-03T09:34:52.258Z,102426.06
2022-12-03T09:37:21.439Z,102430.94
2022-12-03T09:39:49.402Z,102420.22
2022-12-03T09:42:18.864Z,102411.91
2022-12-03T09:44:46.786Z,102414.16
2022-12-03T09:47:14.804Z,102420.63
2022-12-03T09:49:42.907Z,102414.69
2022-12-03T09:52:23.577Z,102413.03
2022-12-03T09:54:53.340Z,102406.84
2022-12-03T09:57:22.855Z,102404.38
2022-12-03T09:59:50.889Z,102401.06
2022-12-03T10:02:22.162Z,102400.44
2022-12-03T10:04:50.494Z,102399.31
2022-12-03T10:07:18.476Z,102384.16
2022-12-03T10:09:46.354Z,102392.06
2022-12-03T10:12:15.384Z,102388.66
2022-12-03T10:14:44.676Z,102392.00
2022-12-03T10:17:13.340Z,102390.34
2022-12-03T10:19:42.699Z,102386.31
2022-12-03T10:22:10.640Z,102401.25
2022-12-03T10:24:39.544Z,102389.56
2022-12-03T10:27:22.259Z,102382.34
2022-12-03T10:30:02.734Z,102379.72
2022-12-03T10:32:41.819Z,102380.22
2022-12-03T10:35:12.427Z,102377.66
2022-12-03T10:37:57.862Z,102376.72
2022-12-03T10:40:27.095Z,102384.16
2022-12-03T10:43:13.956Z,102384.41
2022-12-03T10:45:43.615Z,102385.44
2022-12-03T10:48:14.342Z,102375.41
2022-12-03T10:50:50.887Z,102374.22
2022-12-03T10:53:19.484Z,102385.25
2022-12-03T10:55:48.335Z,102376.81
2022-12-03T10:58:21.960Z,102372.88
2022-12-03T11:00:52.491Z,102372.06
2022-12-03T11:03:25.826Z,102371.78
2022-12-03T11:05:55.171Z,102362.41
2022-12-03T11:08:24.721Z,102357.13
2022-12-03T11:11:00.338Z,102349.72
2022-12-03T11:13:38.952Z,102342.31
2022-12-03T11:16:08.692Z,102345.94
2022-12-03T11:18:59.247Z,102342.84
2022-12-03T11:21:27.160Z,102340.91
2022-12-03T11:24:28.359Z,102339.22
2022-12-03T11:27:18.884Z,102330.75
2022-12-03T11:29:57.640Z,102328.59
2022-12-03T11:33:08.475Z,102314.34
2022-12-03T11:36:02.419Z,102320.19
2022-12-03T11:38:52.339Z,102317.78
2022-12-03T11:41:22.879Z,102313.59
2022-12-03T11:44:19.835Z,102313.41
2022-12-03T11:46:48.208Z,102310.47
2022-12-03T11:49:39.888Z,102307.38
2022-12-03T11:52:24.384Z,102302.34
2022-12-03T11:54:55.261Z,102305.31
2022-12-03T11:57:27.983Z,102298.22
2022-12-03T12:00:05.883Z,102296.66
2022-12-03T12:02:39.945Z,102291.28
2022-12-03T12:05:22.919Z,102292.38
2022-12-03T12:07:52.930Z,102287.75
2022-12-03T12:10:41.486Z,102291.00
2022-12-03T12:13:27.761Z,102285.13
2022-12-03T12:15:56.107Z,102287.31
2022-12-03T12:18:38.290Z,102283.06
2022-12-03T12:21:41.043Z,102283.88
2022-12-03T12:24:38.252Z,102279.69
2022-12-03T12:27:07.933Z,102271.75
2022-12-03T12:29:37.201Z,102263.91
2022-12-03T12:32:15.113Z,102259.91
2022-12-03T12:34:44.970Z,102266.88
2022-12-03T12:37:15.582Z,102266.94
2022-12-03T12:39:45.077Z,102262.38
2022-12-03T12:42:28.618Z,102258.88
2022-12-03T12:45:00.208Z,102251.09
2022-12-03T12:47:31.116Z,102246.56
2022-12-03T12:49:59.722Z,102248.09
2022-12-03T12:52:28.677Z,102246.63
2022-12-03T12:55:03.077Z,102245.09
2022-12-03T12:57:33.320Z,102235.41
2022-12-03T13:00:01.198Z,102247.72
2022-12-03T13:02:40.939Z,102232.72
2022-12-03T13:05:14.000Z,102233.09
2022-12-03T13:07:44.162Z,102232.72
2022-12-03T13:10:41.908Z,102227.91
2022-12-03T13:13:24.715Z,102241.44
2022-12-03T13:15:58.680Z,102224.03
2022-12-03T13:18:29.659Z,102229.44
2022-12-03T13:20:57.689Z,102227.38
2022-12-03T13:23:32.481Z,102225.84
2022-12-03T13:26:22.312Z,102227.59
2022-12-03T13:28:52.933Z,102216.03
2022-12-03T13:31:26.837Z,102214.25
2022-12-03T13:33:56.933Z,102208.59
2022-12-03T13:36:31.442Z,102201.69
2022-12-03T13:38:59.822Z,102208.84
2022-12-03T13:42:01.341Z,102208.19
2022-12-03T13:44:31.556Z,102211.88
2022-12-03T13:47:02.007Z,102203.53
2022-12-03T13:49:30.374Z,102206.03
2022-12-03T13:51:58.208Z,102215.41
2022-12-03T13:54:28.190Z,102210.13
2022-12-03T13:56:57.886Z,102209.63
2022-12-03T13:59:26.489Z,102202.97
2022-12-03T14:01:54.526Z,102207.06
2022-12-03T14:04:22.407Z,102216.25
2022-12-03T14:06:50.359Z,102203.47
2022-12-03T14:09:18.401Z,102221.13
2022-12-03T14:12:03.749Z,102215.34
2022-12-03T14:14:33.048Z,102212.78
2022-12-03T14:17:01.015Z,102209.75
2022-12-03T14:19:29.030Z,102214.13
2022-12-03T14:21:57.060Z,102216.66
2022-12-03T14:24:25.107Z,102221.25
2022-12-03T14:26:53.006Z,102229.34
2022-12-03T14:29:21.029Z,102219.16
2022-12-03T14:31:50.248Z,102214.50
2022-12-03T14:34:18.199Z,102220.75
2022-12-03T14:36:46.064Z,102215.50
2022-12-03T14:39:13.948Z,102217.63
2022-12-03T14:42:07.666Z,102214.22
2022-12-03T14:44:35.732Z,102207.53
2022-12-03T14:47:05.088Z,102205.09
2022-12-03T14:49:33.005Z,102200.69
2022-12-03T14:52:00.904Z,102206.81
2022-12-03T14:54:28.827Z,102206.94
2022-12-03T14:56:56.701Z,102203.16
2022-12-03T14:59:27.827Z,102204.91
2022-12-03T15:01:56.416Z,102209.84
2022-12-03T15:04:25.989Z,102207.75
2022-12-03T15:06:53.873Z,102212.13
2022-12-03T15:09:21.895Z,102213.94
2022-12-03T15:11:50.014Z,102218.16
2022-12-03T15:14:18.031Z,102215.59
2022-12-03T15:16:46.126Z,102221.09
2022-12-03T15:19:15.562Z,102210.16
2022-12-03T15:21:45.281Z,102207.03
2022-12-03T15:24:13.344Z,102216.53
2022-12-03T15:26:41.219Z,102219.47
2022-12-03T15:29:09.278Z,102214.88
2022-12-03T15:31:37.282Z,102199.97
2022-12-03T15:34:05.181Z,102203.78
2022-12-03T15:36:33.069Z,102199.13
2022-12-03T15:39:02.393Z,102199.91
2022-12-03T15:41:30.754Z,102201.06
2022-12-03T15:43:59.990Z,102200.22
2022-12-03T15:46:28.430Z,102203.69
2022-12-03T15:48:56.567Z,102197.69
2022-12-03T15:51:39.340Z,102196.47
2022-12-03T15:54:08.605Z,102193.84
2022-12-03T15:56:37.683Z,102195.47
2022-12-03T15:59:05.669Z,102190.16
2022-12-03T16:01:33.766Z,102194.47
2022-12-03T16:04:01.769Z,102198.69
2022-12-03T16:06:29.588Z,102197.59
2022-12-03T16:08:57.421Z,102205.25
2022-12-03T16:11:26.679Z,102204.66
2022-12-03T16:13:54.647Z,102209.28
2022-12-03T16:16:22.623Z,102207.22
2022-12-03T16:18:50.520Z,102199.66
2022-12-03T16:21:22.046Z,102206.78
2022-12-03T16:23:54.318Z,102211.19
2022-12-03T16:26:22.189Z,102209.22
2022-12-03T16:28:51.420Z,102216.53
2022-12-03T16:31:19.993Z,102218.41
2022-12-03T16:33:48.371Z,102219.28
2022-12-03T16:36:16.276Z,102215.94
2022-12-03T16:38:44.168Z,102225.28
2022-12-03T16:41:12.028Z,102223.88
2022-12-03T16:43:39.907Z,102219.28
2022-12-03T16:46:25.542Z,102218.84
2022-12-03T16:48:55.203Z,102220.94
2022-12-03T16:51:23.138Z,102214.28
2022-12-03T16:53:50.981Z,102223.28
2022-12-03T16:56:18.880Z,102223.88
2022-12-03T16:58:46.707Z,102221.59
2022-12-03T17:01:15.973Z,102227.59
2022-12-03T17:03:43.820Z,102226.25
2022-12-03T17:06:11.661Z,102234.97
2022-12-03T17:08:41.063Z,102229.06
2022-12-03T17:11:12.498Z,102227.66
2022-12-03T17:13:40.450Z,102227.38
2022-12-03T17:16:08.457Z,102230.44
2022-12-03T17:18:38.078Z,102233.09
2022-12-03T17:21:06.968Z,102234.19
2022-12-03T17:23:34.841Z,102229.03
2022-12-03T17:26:02.696Z,102234.88
2022-12-03T17:28:30.625Z,102228.94
2022-12-03T17:30:58.644Z,102223.38
2022-12-03T17:33:26.538Z,102229.91
2022-12-03T17:35:55.687Z,102230.00
2022-12-03T17:38:23.611Z,102225.31
2022-12-03T17:40:51.464Z,102218.31
2022-12-03T17:43:19.303Z,102222.91
2022-12-03T17:45:47.172Z,102216.38
2022-12-03T17:48:15.015Z,102220.22
2022-12-03T17:50:42.985Z,102213.16
2022-12-03T17:53:12.239Z,102222.16
2022-12-03T17:55:44.736Z,102213.88
2022-12-03T17:58:13.561Z,102220.03
2022-12-03T18:00:41.681Z,102224.56
2022-12-03T18:03:09.729Z,102222.69
2022-12-03T18:05:37.611Z,102221.09
2022-12-03T18:08:06.025Z,102230.44
2022-12-03T18:10:35.257Z,102231.16
2022-12-03T18:13:03.181Z,102233.63
2022-12-03T18:15:31.258Z,102234.88
2022-12-03T18:17:59.173Z,102238.81
2022-12-03T18:20:27.093Z,102233.91
2022-12-03T18:22:55.018Z,102233.91
2022-12-03T18:25:22.965Z,102227.88
2022-12-03T18:27:52.240Z,102229.56
2022-12-03T18:30:20.286Z,102230.34
2022-12-03T18:32:48.824Z,102233.63
2022-12-03T18:35:16.893Z,102233.59
2022-12-03T18:37:45.045Z,102233.53
2022-12-03T18:40:18.522Z,102239.03
2022-12-03T18:42:46.569Z,102238.97
2022-12-03T18:45:16.879Z,102234.75
2022-12-03T18:47:44.968Z,102237.16
2022-12-03T18:50:13.635Z,102235.25
2022-12-03T18:52:41.547Z,102239.50
2022-12-03T18:55:11.994Z,102235.88
2022-12-03T18:57:39.822Z,102236.69
2022-12-03T19:00:13.469Z,102241.00
2022-12-03T19:03:02.412Z,102241.06
2022-12-03T19:05:30.989Z,102244.34
2022-12-03T19:07:58.950Z,102240.44
2022-12-03T19:10:27.327Z,102246.16
2022-12-03T19:12:55.263Z,102246.91
2022-12-03T19:15:24.017Z,102247.31
2022-12-03T19:17:53.289Z,102251.47
2022-12-03T19:20:21.134Z,102249.81
2022-12-03T19:22:49.064Z,102246.38
2022-12-03T19:25:17.494Z,102248.84
2022-12-03T19:27:50.117Z,102251.66
2022-12-03T19:30:18.720Z,102244.88
2022-12-03T19:32:48.571Z,102245.34
2022-12-03T19:35:18.218Z,102244.63
2022-12-03T19:37:47.938Z,102254.22
2022-12-03T19:40:16.187Z,102251.00
2022-12-03T19:42:44.262Z,102248.91
2022-12-03T19:45:12.662Z,102247.91
2022-12-03T19:47:40.519Z,102252.69
2022-12-03T19:50:09.782Z,102256.47
2022-12-03T19:52:39.101Z,102259.25
2022-12-03T19:55:07.552Z,102251.53
2022-12-03T19:57:35.477Z,102255.22
2022-12-03T20:00:03.797Z,102250.16
2022-12-03T20:02:40.245Z,102253.88
2022-12-03T20:05:08.396Z,102254.75
2022-12-03T20:07:36.263Z,102252.72
2022-12-03T20:10:06.917Z,102258.06
2022-12-03T20:12:34.803Z,102256.63
2022-12-03T20:15:02.749Z,102264.06
2022-12-03T20:17:30.714Z,102263.78
2022-12-03T20:19:58.508Z,102259.78
2022-12-03T20:22:26.425Z,102260.66
2022-12-03T20:24:54.437Z,102255.81
2022-12-03T20:27:23.696Z,102246.22
2022-12-03T20:29:51.645Z,102253.00
2022-12-03T20:32:19.731Z,102251.94
2022-12-03T20:34:48.838Z,102252.00
2022-12-03T20:37:16.731Z,102247.16
2022-12-03T20:39:44.575Z,102245.06
2022-12-03T20:42:12.710Z,102251.00
2022-12-03T20:44:42.201Z,102252.88
2022-12-03T20:47:10.211Z,102237.16
2022-12-03T20:49:38.992Z,102237.88
2022-12-03T20:52:06.974Z,102243.06
2022-12-03T20:54:34.874Z,102244.53
2022-12-03T20:57:02.952Z,102255.34
2022-12-03T20:59:31.717Z,102249.09
2022-12-03T21:02:01.109Z,102251.00
2022-12-03T21:04:29.234Z,102248.66
2022-12-03T21:06:57.738Z,102243.38
2022-12-03T21:09:25.690Z,102243.00
2022-12-03T21:11:53.748Z,102243.66
2022-12-03T21:14:21.913Z,102241.88
2022-12-03T21:19:39.910Z,102244.47
2022-12-03T21:22:08.278Z,102244.16
2022-12-03T21:24:36.422Z,102242.06
2022-12-03T21:27:04.677Z,102241.66
2022-12-03T21:29:32.573Z,102230.88
2022-12-03T21:32:00.577Z,102233.25
2022-12-03T21:34:35.636Z,102236.59
2022-12-03T21:37:05.738Z,102237.63
2022-12-03T21:39:33.602Z,102225.19
2022-12-03T21:42:19.243Z,102241.06
2022-12-03T21:44:49.506Z,102246.41
2022-12-03T21:47:17.552Z,102238.91
2022-12-03T21:49:45.710Z,102243.84
2022-12-03T21:52:15.025Z,102237.22
2022-12-03T21:54:42.906Z,102245.66
2022-12-03T21:57:10.751Z,102248.97
2022-12-03T21:59:38.618Z,102242.88
2022-12-03T22:02:06.627Z,102240.91
2022-12-03T22:04:34.559Z,102236.59
2022-12-03T22:07:02.516Z,102240.78
2022-12-03T22:09:33.341Z,102247.09
2022-12-03T22:12:01.653Z,102242.50
2022-12-03T22:14:29.621Z,102232.25
2022-12-03T22:16:57.488Z,102238.72
2022-12-03T22:19:26.169Z,102234.00
2022-12-03T22:21:54.050Z,102236.56
2022-12-03T22:24:23.623Z,102228.75
2022-12-03T22:26:54.628Z,102227.16
2022-12-03T22:29:22.674Z,102227.88
2022-12-03T22:31:50.542Z,102226.28
2022-12-03T22:34:18.431Z,102218.00
2022-12-03T22:36:46.232Z,102219.69
2022-12-03T22:39:14.130Z,102213.88
2022-12-03T22:41:41.971Z,102220.16
2022-12-03T22:44:11.426Z,102211.03
2022-12-03T22:46:39.431Z,102218.00
2022-12-03T22:49:07.831Z,102215.16
2022-12-03T22:51:36.277Z,102217.72
2022-12-03T22:54:04.382Z,102213.97
2022-12-03T22:56:32.539Z,102220.47
2022-12-03T22:59:00.458Z,102211.63
2022-12-03T23:01:31.273Z,102206.03
2022-12-03T23:03:59.433Z,102202.69
2022-12-03T23:06:27.960Z,102209.38
2022-12-03T23:08:56.180Z,102198.75
2022-12-03T23:11:24.131Z,102205.84
2022-12-03T23:13:52.380Z,102196.88
2022-12-03T23:16:22.286Z,102206.66
2022-12-03T23:18:51.621Z,102192.91
2022-12-03T23:21:28.506Z,102192.72
2022-12-03T23:23:57.896Z,102196.69
2022-12-03T23:26:25.770Z,102186.13
2022-12-03T23:28:53.644Z,102195.47
2022-12-03T23:31:23.057Z,102199.06
2022-12-03T23:33:52.953Z,102193.38
2022-12-03T23:36:21.627Z,102192.31
2022-12-03T23:38:49.790Z,102193.53
2022-12-03T23:41:19.495Z,102186.34
2022-12-03T23:43:47.714Z,102194.34
2022-12-03T23:46:17.018Z,102181.38
2022-12-03T23:48:45.369Z,102183.75
2022-12-03T23:51:16.732Z,102183.78
2022-12-03T23:53:44.767Z,102177.56
2022-12-03T23:56:15.198Z,102187.34
2022-12-03T23:58:43.302Z,102184.63
